sensor_id;sensor_type;location;lat;lon;timestamp;pressure;altitude;pressure_sealevel;temperature;humidity
61757;BME280;57225;61.460;24.060;2024-02-28T00:01:52;100443.88;;;-1.80;100.00
61757;BME280;57225;61.460;24.060;2024-02-28T00:04:39;100431.06;;;-1.71;100.00
61757;BME280;57225;61.460;24.060;2024-02-28T00:07:24;100431.31;;;-1.81;100.00
61757;BME280;57225;61.460;24.060;2024-02-28T00:10:08;100425.88;;;-1.81;100.00
61757;BME280;57225;61.460;24.060;2024-02-28T00:12:52;100417.16;;;-1.83;100.00
61757;BME280;57225;61.460;24.060;2024-02-28T00:15:37;100420.41;;;-1.81;100.00
61757;BME280;57225;61.460;24.060;2024-02-28T00:18:23;100427.03;;;-1.74;100.00
61757;BME280;57225;61.460;24.060;2024-02-28T00:21:08;100414.31;;;-1.78;100.00
61757;BME280;57225;61.460;24.060;2024-02-28T00:23:52;100411.25;;;-1.77;100.00
61757;BME280;57225;61.460;24.060;2024-02-28T00:26:41;100408.06;;;-1.79;100.00
61757;BME280;57225;61.460;24.060;2024-02-28T00:29:26;100412.56;;;-1.74;100.00
61757;BME280;57225;61.460;24.060;2024-02-28T00:32:10;100408.22;;;-1.75;100.00
61757;BME280;57225;61.460;24.060;2024-02-28T00:34:55;100406.13;;;-1.78;100.00
61757;BME280;57225;61.460;24.060;2024-02-28T00:37:39;100413.53;;;-1.70;100.00
61757;BME280;57225;61.460;24.060;2024-02-28T00:40:24;100403.41;;;-1.78;100.00
61757;BME280;57225;61.460;24.060;2024-02-28T00:43:09;100402.38;;;-1.82;100.00
61757;BME280;57225;61.460;24.060;2024-02-28T00:45:54;100404.50;;;-1.79;100.00
61757;BME280;57225;61.460;24.060;2024-02-28T00:48:39;100411.44;;;-1.73;100.00
61757;BME280;57225;61.460;24.060;2024-02-28T00:51:24;100412.88;;;-1.76;100.00
61757;BME280;57225;61.460;24.060;2024-02-28T00:54:08;100405.78;;;-1.77;100.00
61757;BME280;57225;61.460;24.060;2024-02-28T00:56:53;100409.22;;;-1.71;100.00
61757;BME280;57225;61.460;24.060;2024-02-28T00:59:37;100410.28;;;-1.81;100.00
61757;BME280;57225;61.460;24.060;2024-02-28T01:02:21;100397.94;;;-1.78;100.00
61757;BME280;57225;61.460;24.060;2024-02-28T01:05:06;100400.31;;;-1.77;100.00
61757;BME280;57225;61.460;24.060;2024-02-28T01:07:50;100391.81;;;-1.75;100.00
61757;BME280;57225;61.460;24.060;2024-02-28T01:10:35;100393.88;;;-1.81;100.00
61757;BME280;57225;61.460;24.060;2024-02-28T01:13:20;100388.88;;;-1.87;100.00
61757;BME280;57225;61.460;24.060;2024-02-28T01:16:05;100382.81;;;-1.84;100.00
61757;BME280;57225;61.460;24.060;2024-02-28T01:18:49;100387.00;;;-1.78;100.00
61757;BME280;57225;61.460;24.060;2024-02-28T01:21:34;100384.38;;;-1.83;100.00
61757;BME280;57225;61.460;24.060;2024-02-28T01:24:18;100385.38;;;-1.79;100.00
61757;BME280;57225;61.460;24.060;2024-02-28T01:27:02;100387.63;;;-1.81;100.00
61757;BME280;57225;61.460;24.060;2024-02-28T01:29:47;100392.09;;;-1.85;100.00
61757;BME280;57225;61.460;24.060;2024-02-28T01:32:31;100386.19;;;-1.79;100.00
61757;BME280;57225;61.460;24.060;2024-02-28T01:35:16;100386.38;;;-1.75;100.00
61757;BME280;57225;61.460;24.060;2024-02-28T01:38:00;100367.03;;;-1.87;100.00
61757;BME280;57225;61.460;24.060;2024-02-28T01:40:47;100370.47;;;-1.73;100.00
61757;BME280;57225;61.460;24.060;2024-02-28T01:43:31;100384.94;;;-1.73;100.00
61757;BME280;57225;61.460;24.060;2024-02-28T01:46:27;100383.63;;;-1.75;100.00
61757;BME280;57225;61.460;24.060;2024-02-28T01:49:11;100384.94;;;-1.73;100.00
61757;BME280;57225;61.460;24.060;2024-02-28T01:51:56;100380.91;;;-1.75;100.00
61757;BME280;57225;61.460;24.060;2024-02-28T01:54:41;100376.38;;;-1.80;100.00
61757;BME280;57225;61.460;24.060;2024-02-28T01:57:26;100383.94;;;-1.77;100.00
61757;BME280;57225;61.460;24.060;2024-02-28T02:00:11;100371.09;;;-1.76;100.00
61757;BME280;57225;61.460;24.060;2024-02-28T02:22:18;100371.59;;;-2.05;100.00
61757;BME280;57225;61.460;24.060;2024-02-28T02:25:06;100374.84;;;-1.94;100.00
61757;BME280;57225;61.460;24.060;2024-02-28T02:27:51;100379.41;;;-1.90;100.00
61757;BME280;57225;61.460;24.060;2024-02-28T02:30:35;100368.00;;;-1.83;100.00
61757;BME280;57225;61.460;24.060;2024-02-28T02:33:19;100369.03;;;-2.02;100.00
61757;BME280;57225;61.460;24.060;2024-02-28T02:36:04;100362.47;;;-2.00;100.00
61757;BME280;57225;61.460;24.060;2024-02-28T02:38:48;100371.75;;;-2.02;100.00
61757;BME280;57225;61.460;24.060;2024-02-28T02:41:34;100364.72;;;-2.03;100.00
61757;BME280;57225;61.460;24.060;2024-02-28T02:44:18;100360.38;;;-2.04;100.00
61757;BME280;57225;61.460;24.060;2024-02-28T02:47:03;100360.38;;;-2.04;100.00
61757;BME280;57225;61.460;24.060;2024-02-28T02:49:47;100354.25;;;-2.00;100.00
61757;BME280;57225;61.460;24.060;2024-02-28T02:52:32;100356.56;;;-1.94;100.00
61757;BME280;57225;61.460;24.060;2024-02-28T02:55:16;100361.06;;;-1.89;100.00
61757;BME280;57225;61.460;24.060;2024-02-28T02:58:00;100358.00;;;-1.96;100.00
61757;BME280;57225;61.460;24.060;2024-02-28T03:00:46;100353.50;;;-1.92;100.00
61757;BME280;57225;61.460;24.060;2024-02-28T03:03:30;100344.97;;;-1.99;100.00
61757;BME280;57225;61.460;24.060;2024-02-28T03:06:15;100351.69;;;-2.06;100.00
61757;BME280;57225;61.460;24.060;2024-02-28T03:09:00;100341.25;;;-2.04;100.00
61757;BME280;57225;61.460;24.060;2024-02-28T03:11:44;100349.09;;;-2.02;100.00
61757;BME280;57225;61.460;24.060;2024-02-28T03:14:29;100341.25;;;-2.04;100.00
61757;BME280;57225;61.460;24.060;2024-02-28T03:17:13;100339.13;;;-2.07;100.00
61757;BME280;57225;61.460;24.060;2024-02-28T03:19:59;100337.22;;;-2.06;100.00
61757;BME280;57225;61.460;24.060;2024-02-28T03:22:44;100344.97;;;-1.99;100.00
61757;BME280;57225;61.460;24.060;2024-02-28T03:25:28;100342.38;;;-2.05;100.00
61757;BME280;57225;61.460;24.060;2024-02-28T03:28:13;100345.09;;;-2.05;100.00
61757;BME280;57225;61.460;24.060;2024-02-28T03:30:57;100356.63;;;-2.08;100.00
61757;BME280;57225;61.460;24.060;2024-02-28T03:33:41;100349.75;;;-2.05;100.00
61757;BME280;57225;61.460;24.060;2024-02-28T03:36:28;100347.03;;;-2.05;100.00
61757;BME280;57225;61.460;24.060;2024-02-28T03:39:12;100346.38;;;-2.02;100.00
61757;BME280;57225;61.460;24.060;2024-02-28T03:41:57;100351.91;;;-1.93;100.00
61757;BME280;57225;61.460;24.060;2024-02-28T03:44:41;100345.25;;;-2.01;100.00
61757;BME280;57225;61.460;24.060;2024-02-28T03:47:26;100346.44;;;-1.93;100.00
61757;BME280;57225;61.460;24.060;2024-02-28T03:50:10;100350.28;;;-1.94;100.00
61757;BME280;57225;61.460;24.060;2024-02-28T03:52:55;100346.28;;;-1.97;100.00
61757;BME280;57225;61.460;24.060;2024-02-28T03:55:39;100348.34;;;-2.03;100.00
61757;BME280;57225;61.460;24.060;2024-02-28T03:58:24;100340.16;;;-2.03;100.00
61757;BME280;57225;61.460;24.060;2024-02-28T04:01:08;100338.03;;;-2.06;100.00
61757;BME280;57225;61.460;24.060;2024-02-28T04:03:53;100337.22;;;-2.06;100.00
61757;BME280;57225;61.460;24.060;2024-02-28T04:06:37;100344.09;;;-2.09;100.00
61757;BME280;57225;61.460;24.060;2024-02-28T04:09:22;100337.06;;;-2.10;100.00
61757;BME280;57225;61.460;24.060;2024-02-28T04:12:06;100341.84;;;-2.15;100.00
61757;BME280;57225;61.460;24.060;2024-02-28T04:14:51;100343.13;;;-2.13;100.00
61757;BME280;57225;61.460;24.060;2024-02-28T04:17:36;100339.00;;;-2.02;100.00
61757;BME280;57225;61.460;24.060;2024-02-28T04:20:20;100343.19;;;-2.04;100.00
61757;BME280;57225;61.460;24.060;2024-02-28T04:23:04;100341.88;;;-2.07;100.00
61757;BME280;57225;61.460;24.060;2024-02-28T04:25:49;100344.44;;;-2.10;100.00
61757;BME280;57225;61.460;24.060;2024-02-28T04:28:34;100335.06;;;-2.18;100.00
61757;BME280;57225;61.460;24.060;2024-02-28T04:31:18;100350.19;;;-2.12;100.00
61757;BME280;57225;61.460;24.060;2024-02-28T04:34:03;100345.72;;;-2.08;100.00
61757;BME280;57225;61.460;24.060;2024-02-28T04:36:48;100346.16;;;-2.14;100.00
61757;BME280;57225;61.460;24.060;2024-02-28T04:39:32;100354.19;;;-2.18;100.00
61757;BME280;57225;61.460;24.060;2024-02-28T04:42:17;100351.81;;;-2.11;100.00
61757;BME280;57225;61.460;24.060;2024-02-28T04:45:02;100349.22;;;-2.16;100.00
61757;BME280;57225;61.460;24.060;2024-02-28T04:47:47;100353.38;;;-2.18;100.00
61757;BME280;57225;61.460;24.060;2024-02-28T04:50:31;100355.00;;;-2.17;100.00
61757;BME280;57225;61.460;24.060;2024-02-28T04:53:16;100354.78;;;-2.21;100.00
61757;BME280;57225;61.460;24.060;2024-02-28T04:56:00;100357.22;;;-2.19;100.00
61757;BME280;57225;61.460;24.060;2024-02-28T04:58:45;100354.63;;;-2.24;100.00
61757;BME280;57225;61.460;24.060;2024-02-28T05:01:29;100355.94;;;-2.22;100.00
61757;BME280;57225;61.460;24.060;2024-02-28T05:04:14;100354.13;;;-2.26;100.00
61757;BME280;57225;61.460;24.060;2024-02-28T05:06:58;100355.56;;;-2.29;100.00
61757;BME280;57225;61.460;24.060;2024-02-28T05:09:43;100356.41;;;-2.20;100.00
61757;BME280;57225;61.460;24.060;2024-02-28T05:12:27;100356.53;;;-2.25;100.00
61757;BME280;57225;61.460;24.060;2024-02-28T05:15:12;100338.69;;;-2.31;100.00
61757;BME280;57225;61.460;24.060;2024-02-28T05:17:56;100352.06;;;-2.21;100.00
61757;BME280;57225;61.460;24.060;2024-02-28T05:20:41;100355.59;;;-2.20;100.00
61757;BME280;57225;61.460;24.060;2024-02-28T05:23:25;100360.75;;;-2.19;100.00
61757;BME280;57225;61.460;24.060;2024-02-28T05:26:10;100362.38;;;-2.18;100.00
61757;BME280;57225;61.460;24.060;2024-02-28T05:28:54;100366.22;;;-2.19;100.00
61757;BME280;57225;61.460;24.060;2024-02-28T05:31:39;100360.69;;;-2.27;100.00
61757;BME280;57225;61.460;24.060;2024-02-28T05:34:23;100359.78;;;-2.23;100.00
61757;BME280;57225;61.460;24.060;2024-02-28T05:37:08;100360.44;;;-2.17;100.00
61757;BME280;57225;61.460;24.060;2024-02-28T05:39:52;100354.69;;;-2.16;100.00
61757;BME280;57225;61.460;24.060;2024-02-28T05:42:36;100357.28;;;-2.11;100.00
61757;BME280;57225;61.460;24.060;2024-02-28T05:45:21;100360.09;;;-2.24;100.00
61757;BME280;57225;61.460;24.060;2024-02-28T05:48:06;100351.88;;;-2.24;100.00
61757;BME280;57225;61.460;24.060;2024-02-28T05:50:50;100355.66;;;-2.12;100.00
61757;BME280;57225;61.460;24.060;2024-02-28T05:53:35;100353.09;;;-2.08;100.00
61757;BME280;57225;61.460;24.060;2024-02-28T05:56:22;100344.91;;;-2.08;100.00
61757;BME280;57225;61.460;24.060;2024-02-28T05:59:07;100348.34;;;-2.03;100.00
61757;BME280;57225;61.460;24.060;2024-02-28T06:01:51;100344.97;;;-1.99;100.00
61757;BME280;57225;61.460;24.060;2024-02-28T06:04:35;100338.38;;;-1.98;100.00
61757;BME280;57225;61.460;24.060;2024-02-28T06:07:20;100328.44;;;-1.94;100.00
61757;BME280;57225;61.460;24.060;2024-02-28T06:10:05;100325.38;;;-1.93;100.00
61757;BME280;57225;61.460;24.060;2024-02-28T06:12:49;100335.50;;;-1.93;100.00
61757;BME280;57225;61.460;24.060;2024-02-28T06:15:34;100333.44;;;-1.88;100.00
61757;BME280;57225;61.460;24.060;2024-02-28T06:18:19;100332.03;;;-1.85;100.00
61757;BME280;57225;61.460;24.060;2024-02-28T06:21:04;100331.38;;;-1.82;100.00
61757;BME280;57225;61.460;24.060;2024-02-28T06:23:48;100337.78;;;-1.87;100.00
61757;BME280;57225;61.460;24.060;2024-02-28T06:26:32;100335.22;;;-1.83;100.00
61757;BME280;57225;61.460;24.060;2024-02-28T06:29:18;100333.78;;;-1.81;100.00
61757;BME280;57225;61.460;24.060;2024-02-28T06:32:02;100334.75;;;-1.77;100.00
61757;BME280;57225;61.460;24.060;2024-02-28T06:34:47;100343.47;;;-1.75;100.00
61757;BME280;57225;61.460;24.060;2024-02-28T06:37:31;100340.72;;;-1.75;100.00
61757;BME280;57225;61.460;24.060;2024-02-28T06:40:17;100336.88;;;-1.74;100.00
61757;BME280;57225;61.460;24.060;2024-02-28T06:43:02;100342.19;;;-1.77;100.00
61757;BME280;57225;61.460;24.060;2024-02-28T06:45:47;100337.19;;;-1.75;100.00
61757;BME280;57225;61.460;24.060;2024-02-28T06:48:31;100340.41;;;-1.73;100.00
61757;BME280;57225;61.460;24.060;2024-02-28T06:51:16;100345.75;;;-1.68;100.00
61757;BME280;57225;61.460;24.060;2024-02-28T06:54:02;100345.06;;;-1.74;100.00
61757;BME280;57225;61.460;24.060;2024-02-28T06:56:47;100348.91;;;-1.75;100.00
61757;BME280;57225;61.460;24.060;2024-02-28T06:59:31;100348.78;;;-1.70;100.00
61757;BME280;57225;61.460;24.060;2024-02-28T07:02:16;100350.69;;;-1.70;100.00
61757;BME280;57225;61.460;24.060;2024-02-28T07:05:01;100340.28;;;-1.68;100.00
61757;BME280;57225;61.460;24.060;2024-02-28T07:07:45;100343.00;;;-1.68;100.00
61757;BME280;57225;61.460;24.060;2024-02-28T07:10:30;100344.56;;;-1.76;100.00
61757;BME280;57225;61.460;24.060;2024-02-28T07:13:15;100334.44;;;-1.84;100.00
61757;BME280;57225;61.460;24.060;2024-02-28T07:15:59;100343.41;;;-1.83;100.00
61757;BME280;57225;61.460;24.060;2024-02-28T07:18:44;100341.84;;;-1.76;100.00
61757;BME280;57225;61.460;24.060;2024-02-28T07:21:28;100338.94;;;-1.79;100.00
61757;BME280;57225;61.460;24.060;2024-02-28T07:24:14;100331.72;;;-1.75;100.00
61757;BME280;57225;61.460;24.060;2024-02-28T07:26:59;100332.38;;;-1.78;100.00
61757;BME280;57225;61.460;24.060;2024-02-28T07:29:43;100316.44;;;-1.85;100.00
61757;BME280;57225;61.460;24.060;2024-02-28T07:32:28;100331.72;;;-1.75;100.00
61757;BME280;57225;61.460;24.060;2024-02-28T07:35:13;100336.47;;;-1.58;100.00
61757;BME280;57225;61.460;24.060;2024-02-28T07:37:58;100342.41;;;-1.56;100.00
61757;BME280;57225;61.460;24.060;2024-02-28T07:40:42;100343.03;;;-1.59;100.00
61757;BME280;57225;61.460;24.060;2024-02-28T07:43:27;100343.50;;;-1.57;100.00
61757;BME280;57225;61.460;24.060;2024-02-28T07:46:12;100340.47;;;-1.56;100.00
61757;BME280;57225;61.460;24.060;2024-02-28T07:48:57;100336.97;;;-1.48;100.00
61757;BME280;57225;61.460;24.060;2024-02-28T07:51:41;100335.19;;;-1.44;100.00
61757;BME280;57225;61.460;24.060;2024-02-28T07:54:25;100339.53;;;-1.43;100.00
61757;BME280;57225;61.460;24.060;2024-02-28T07:57:11;100344.69;;;-1.41;100.00
61757;BME280;57225;61.460;24.060;2024-02-28T07:59:56;100336.66;;;-1.46;100.00
61757;BME280;57225;61.460;24.060;2024-02-28T08:02:41;100335.50;;;-1.45;100.00
61757;BME280;57225;61.460;24.060;2024-02-28T08:05:25;100307.69;;;-1.56;100.00
61757;BME280;57225;61.460;24.060;2024-02-28T08:08:10;100326.38;;;-1.41;100.00
61757;BME280;57225;61.460;24.060;2024-02-28T08:10:54;100322.84;;;-1.33;100.00
61757;BME280;57225;61.460;24.060;2024-02-28T08:13:39;100331.25;;;-1.20;100.00
61757;BME280;57225;61.460;24.060;2024-02-28T08:16:23;100326.75;;;-0.99;100.00
61757;BME280;57225;61.460;24.060;2024-02-28T08:19:08;100329.31;;;-1.11;100.00
61757;BME280;57225;61.460;24.060;2024-02-28T08:21:52;100326.25;;;-1.27;100.00
61757;BME280;57225;61.460;24.060;2024-02-28T08:24:52;100328.97;;;-1.18;100.00
61757;BME280;57225;61.460;24.060;2024-02-28T08:27:36;100332.69;;;-1.14;100.00
61757;BME280;57225;61.460;24.060;2024-02-28T08:30:21;100335.44;;;-1.14;100.00
61757;BME280;57225;61.460;24.060;2024-02-28T08:33:08;100333.16;;;-1.12;100.00
61757;BME280;57225;61.460;24.060;2024-02-28T08:35:54;100342.03;;;-0.98;100.00
61757;BME280;57225;61.460;24.060;2024-02-28T08:38:38;100330.47;;;-0.87;100.00
61757;BME280;57225;61.460;24.060;2024-02-28T08:41:24;100324.00;;;-0.82;100.00
61757;BME280;57225;61.460;24.060;2024-02-28T08:44:08;100331.91;;;-0.89;100.00
61757;BME280;57225;61.460;24.060;2024-02-28T08:46:53;100333.97;;;-0.95;100.00
61757;BME280;57225;61.460;24.060;2024-02-28T08:49:38;100322.41;;;-0.92;100.00
61757;BME280;57225;61.460;24.060;2024-02-28T08:52:23;100329.50;;;-0.91;100.00
61757;BME280;57225;61.460;24.060;2024-02-28T08:55:07;100324.66;;;-0.85;100.00
61757;BME280;57225;61.460;24.060;2024-02-28T08:57:52;100330.13;;;-0.85;100.00
61757;BME280;57225;61.460;24.060;2024-02-28T09:00:36;100318.72;;;-0.78;100.00
61757;BME280;57225;61.460;24.060;2024-02-28T09:03:21;100333.66;;;-0.67;100.00
61757;BME280;57225;61.460;24.060;2024-02-28T09:06:06;100326.44;;;-0.72;100.00
61757;BME280;57225;61.460;24.060;2024-02-28T09:08:51;100316.13;;;-0.75;100.00
61757;BME280;57225;61.460;24.060;2024-02-28T09:11:35;100325.47;;;-0.67;100.00
61757;BME280;57225;61.460;24.060;2024-02-28T09:14:20;100325.16;;;-0.66;100.00
61757;BME280;57225;61.460;24.060;2024-02-28T09:17:05;100323.88;;;-0.77;100.00
61757;BME280;57225;61.460;24.060;2024-02-28T09:19:49;100321.44;;;-0.78;100.00
61757;BME280;57225;61.460;24.060;2024-02-28T09:22:34;100322.75;;;-0.76;100.00
61757;BME280;57225;61.460;24.060;2024-02-28T09:25:19;100316.13;;;-0.75;100.00
61757;BME280;57225;61.460;24.060;2024-02-28T09:28:05;100323.88;;;-0.77;100.00
61757;BME280;57225;61.460;24.060;2024-02-28T09:30:49;100319.50;;;-0.69;100.00
61757;BME280;57225;61.460;24.060;2024-02-28T09:33:35;100317.59;;;-0.77;100.00
61757;BME280;57225;61.460;24.060;2024-02-28T09:36:19;100317.09;;;-0.71;100.00
61757;BME280;57225;61.460;24.060;2024-02-28T09:39:03;100317.41;;;-0.81;100.00
61757;BME280;57225;61.460;24.060;2024-02-28T09:41:48;100320.66;;;-0.79;100.00
61757;BME280;57225;61.460;24.060;2024-02-28T09:44:36;100318.53;;;-0.73;100.00
61757;BME280;57225;61.460;24.060;2024-02-28T09:47:21;100313.72;;;-0.76;100.00
61757;BME280;57225;61.460;24.060;2024-02-28T09:50:07;100302.13;;;-0.73;100.00
61757;BME280;57225;61.460;24.060;2024-02-28T09:52:51;100301.78;;;-0.55;100.00
61757;BME280;57225;61.460;24.060;2024-02-28T09:55:36;100293.88;;;-0.48;100.00
61757;BME280;57225;61.460;24.060;2024-02-28T09:58:20;100299.94;;;-0.16;100.00
61757;BME280;57225;61.460;24.060;2024-02-28T10:01:07;100294.38;;;0.01;100.00
61757;BME280;57225;61.460;24.060;2024-02-28T10:03:55;100283.81;;;0.20;100.00
61757;BME280;57225;61.460;24.060;2024-02-28T10:06:40;100292.53;;;0.22;100.00
61757;BME280;57225;61.460;24.060;2024-02-28T10:09:25;100295.97;;;0.40;100.00
61757;BME280;57225;61.460;24.060;2024-02-28T10:12:10;100295.34;;;0.64;100.00
61757;BME280;57225;61.460;24.060;2024-02-28T10:14:55;100287.63;;;0.87;100.00
61757;BME280;57225;61.460;24.060;2024-02-28T10:17:39;100280.84;;;1.05;100.00
61757;BME280;57225;61.460;24.060;2024-02-28T10:20:24;100288.03;;;0.97;100.00
61757;BME280;57225;61.460;24.060;2024-02-28T10:23:08;100291.03;;;1.04;100.00
61757;BME280;57225;61.460;24.060;2024-02-28T10:25:53;100287.88;;;1.14;100.00
61757;BME280;57225;61.460;24.060;2024-02-28T10:28:39;100285.88;;;1.03;100.00
61757;BME280;57225;61.460;24.060;2024-02-28T10:31:24;100280.31;;;1.11;100.00
61757;BME280;57225;61.460;24.060;2024-02-28T10:34:08;100288.88;;;1.10;100.00
61757;BME280;57225;61.460;24.060;2024-02-28T10:36:53;100282.84;;;1.16;100.00
61757;BME280;57225;61.460;24.060;2024-02-28T10:39:38;100281.59;;;0.93;100.00
61757;BME280;57225;61.460;24.060;2024-02-28T10:42:22;100289.63;;;0.77;100.00
61757;BME280;57225;61.460;24.060;2024-02-28T10:45:11;100291.91;;;0.75;100.00
61757;BME280;57225;61.460;24.060;2024-02-28T10:47:56;100289.09;;;0.84;100.00
61757;BME280;57225;61.460;24.060;2024-02-28T10:50:43;100297.53;;;0.79;100.00
61757;BME280;57225;61.460;24.060;2024-02-28T10:53:37;100285.25;;;0.76;100.00
61757;BME280;57225;61.460;24.060;2024-02-28T10:56:28;100287.53;;;0.95;100.00
61757;BME280;57225;61.460;24.060;2024-02-28T10:59:14;100280.00;;;0.92;100.00
61757;BME280;57225;61.460;24.060;2024-02-28T11:01:59;100286.13;;;1.10;100.00
61757;BME280;57225;61.460;24.060;2024-02-28T11:04:43;100282.16;;;1.07;100.00
61757;BME280;57225;61.460;24.060;2024-02-28T11:07:30;100292.69;;;0.97;100.00
61757;BME280;57225;61.460;24.060;2024-02-28T11:10:15;100282.47;;;0.85;100.00
61757;BME280;57225;61.460;24.060;2024-02-28T11:12:59;100284.34;;;0.72;100.00
61757;BME280;57225;61.460;24.060;2024-02-28T11:15:44;100281.78;;;0.67;100.00
61757;BME280;57225;61.460;24.060;2024-02-28T11:18:28;100284.13;;;0.57;100.00
61757;BME280;57225;61.460;24.060;2024-02-28T11:21:16;100268.97;;;0.51;100.00
61757;BME280;57225;61.460;24.060;2024-02-28T11:24:01;100266.38;;;0.54;100.00
61757;BME280;57225;61.460;24.060;2024-02-28T11:26:45;100276.91;;;0.73;100.00
61757;BME280;57225;61.460;24.060;2024-02-28T11:29:30;100263.25;;;0.85;100.00
61757;BME280;57225;61.460;24.060;2024-02-28T11:32:15;100260.09;;;0.95;100.00
61757;BME280;57225;61.460;24.060;2024-02-28T11:35:01;100261.91;;;0.91;100.00
61757;BME280;57225;61.460;24.060;2024-02-28T11:37:49;100260.19;;;0.87;100.00
61757;BME280;57225;61.460;24.060;2024-02-28T11:40:35;100254.97;;;0.94;100.00
61757;BME280;57225;61.460;24.060;2024-02-28T11:43:19;100257.56;;;0.90;100.00
61757;BME280;57225;61.460;24.060;2024-02-28T11:46:10;100260.72;;;0.80;100.00
61757;BME280;57225;61.460;24.060;2024-02-28T11:48:54;100264.84;;;0.65;100.00
61757;BME280;57225;61.460;24.060;2024-02-28T11:51:45;100254.03;;;0.69;100.00
61757;BME280;57225;61.460;24.060;2024-02-28T11:54:29;100255.25;;;0.51;100.00
61757;BME280;57225;61.460;24.060;2024-02-28T11:57:14;100253.31;;;0.51;100.00
61757;BME280;57225;61.460;24.060;2024-02-28T12:00:08;100251.59;;;0.47;100.00
61757;BME280;57225;61.460;24.060;2024-02-28T12:03:04;100259.69;;;0.43;100.00
61757;BME280;57225;61.460;24.060;2024-02-28T12:05:52;100258.94;;;0.34;100.00
61757;BME280;57225;61.460;24.060;2024-02-28T12:08:37;100260.41;;;0.31;100.00
61757;BME280;57225;61.460;24.060;2024-02-28T12:11:23;100252.41;;;0.47;100.00
61757;BME280;57225;61.460;24.060;2024-02-28T12:14:09;100239.03;;;0.66;100.00
61757;BME280;57225;61.460;24.060;2024-02-28T12:16:53;100227.00;;;0.79;100.00
61757;BME280;57225;61.460;24.060;2024-02-28T12:19:38;100228.19;;;0.91;100.00
61757;BME280;57225;61.460;24.060;2024-02-28T12:22:23;100241.84;;;0.99;100.00
61757;BME280;57225;61.460;24.060;2024-02-28T12:25:07;100243.91;;;1.02;100.00
61757;BME280;57225;61.460;24.060;2024-02-28T12:27:52;100232.22;;;0.93;100.00
61757;BME280;57225;61.460;24.060;2024-02-28T12:30:40;100215.00;;;0.84;100.00
61757;BME280;57225;61.460;24.060;2024-02-28T12:33:26;100228.72;;;0.84;100.00
61757;BME280;57225;61.460;24.060;2024-02-28T12:36:11;100226.59;;;0.69;100.00
61757;BME280;57225;61.460;24.060;2024-02-28T12:38:55;100232.16;;;0.81;100.00
61757;BME280;57225;61.460;24.060;2024-02-28T12:41:40;100227.72;;;0.89;100.00
61757;BME280;57225;61.460;24.060;2024-02-28T12:44:24;100224.06;;;0.85;100.00
61757;BME280;57225;61.460;24.060;2024-02-28T12:47:09;100211.88;;;0.94;100.00
61757;BME280;57225;61.460;24.060;2024-02-28T12:49:53;100208.13;;;0.99;100.00
61757;BME280;57225;61.460;24.060;2024-02-28T12:52:38;100206.84;;;0.96;100.00
61757;BME280;57225;61.460;24.060;2024-02-28T12:55:23;100207.31;;;0.98;100.00
61757;BME280;57225;61.460;24.060;2024-02-28T12:58:07;100195.53;;;0.98;100.00
61757;BME280;57225;61.460;24.060;2024-02-28T13:00:52;100202.25;;;0.88;100.00
61757;BME280;57225;61.460;24.060;2024-02-28T13:03:36;100200.97;;;0.65;100.00
61757;BME280;57225;61.460;24.060;2024-02-28T13:06:21;100187.19;;;0.53;100.00
61757;BME280;57225;61.460;24.060;2024-02-28T13:09:06;100200.38;;;0.80;100.00
61757;BME280;57225;61.460;24.060;2024-02-28T13:11:56;100205.59;;;0.73;100.00
61757;BME280;57225;61.460;24.060;2024-02-28T13:14:40;100200.16;;;0.85;100.00
61757;BME280;57225;61.460;24.060;2024-02-28T13:17:25;100203.06;;;0.68;100.00
61757;BME280;57225;61.460;24.060;2024-02-28T13:20:09;100186.13;;;0.66;100.00
61757;BME280;57225;61.460;24.060;2024-02-28T13:22:54;100193.34;;;0.70;100.00
61757;BME280;57225;61.460;24.060;2024-02-28T13:25:38;100189.34;;;0.68;100.00
61757;BME280;57225;61.460;24.060;2024-02-28T13:28:23;100193.69;;;0.69;100.00
61757;BME280;57225;61.460;24.060;2024-02-28T13:31:13;100188.44;;;0.76;100.00
61757;BME280;57225;61.460;24.060;2024-02-28T13:33:58;100182.47;;;0.62;100.00
61757;BME280;57225;61.460;24.060;2024-02-28T13:36:42;100190.91;;;0.57;100.00
61757;BME280;57225;61.460;24.060;2024-02-28T13:39:30;100189.47;;;0.51;100.00
61757;BME280;57225;61.460;24.060;2024-02-28T13:42:15;100202.97;;;0.35;100.00
61757;BME280;57225;61.460;24.060;2024-02-28T13:45:00;100184.84;;;0.22;100.00
61757;BME280;57225;61.460;24.060;2024-02-28T13:47:44;100187.63;;;0.13;100.00
61757;BME280;57225;61.460;24.060;2024-02-28T13:50:29;100184.56;;;0.15;100.00
61757;BME280;57225;61.460;24.060;2024-02-28T13:53:16;100182.28;;;0.17;100.00
61757;BME280;57225;61.460;24.060;2024-02-28T13:56:00;100183.75;;;-0.15;100.00
61757;BME280;57225;61.460;24.060;2024-02-28T13:58:45;100188.56;;;-0.12;100.00
61757;BME280;57225;61.460;24.060;2024-02-28T14:01:30;100184.38;;;-0.10;100.00
61757;BME280;57225;61.460;24.060;2024-02-28T14:04:15;100179.69;;;-0.09;100.00
61757;BME280;57225;61.460;24.060;2024-02-28T14:07:00;100185.59;;;0.02;100.00
61757;BME280;57225;61.460;24.060;2024-02-28T14:09:44;100172.28;;;-0.09;100.00
61757;BME280;57225;61.460;24.060;2024-02-28T14:12:30;100177.59;;;-0.12;100.00
61757;BME280;57225;61.460;24.060;2024-02-28T14:15:15;100173.00;;;-0.20;100.00
61757;BME280;57225;61.460;24.060;2024-02-28T14:17:59;100170.72;;;-0.18;100.00
61757;BME280;57225;61.460;24.060;2024-02-28T14:20:44;100162.03;;;-0.20;100.00
61757;BME280;57225;61.460;24.060;2024-02-28T14:23:29;100162.69;;;-0.23;100.00